createdAt,value
2022-11-05T00:10:05.321Z,95713.25
2022-11-05T00:25:18.860Z,95723.81
2022-11-05T00:40:20.262Z,95732.59
2022-11-05T00:55:21.679Z,95745.91
2022-11-05T01:10:23.048Z,95757.47
2022-11-05T01:25:24.421Z,95774.38
2022-11-05T01:40:25.851Z,95784.28
2022-11-05T01:55:27.229Z,95784.94
2022-11-05T02:10:28.633Z,95798.28
2022-11-05T02:25:29.972Z,95806.38
2022-11-05T02:40:31.337Z,95819.09
2022-11-05T02:55:32.670Z,95820.22
2022-11-05T03:10:34.008Z,95821.34
2022-11-05T03:25:35.332Z,95840.59
2022-11-05T03:40:36.715Z,95848.41
2022-11-05T03:55:38.037Z,95866.59
2022-11-05T04:10:58.426Z,95876.03
2022-11-05T04:25:59.700Z,95876.34
2022-11-05T04:41:01.039Z,95897.50
2022-11-05T04:56:02.378Z,95906.94
2022-11-05T05:11:03.916Z,95922.88
2022-11-05T05:26:05.238Z,95939.63
2022-11-05T05:41:06.559Z,95952.16
2022-11-05T05:56:07.907Z,95965.06
2022-11-05T06:11:09.306Z,95985.03
2022-11-05T06:26:10.836Z,96001.25
2022-11-05T06:41:12.161Z,96030.69
2022-11-05T06:56:13.488Z,96051.19
2022-11-05T07:11:14.911Z,96064.50
2022-11-05T07:26:16.344Z,96092.13
2022-11-05T07:41:18.234Z,96115.16
2022-11-05T07:56:19.586Z,96136.41
2022-11-05T08:11:20.994Z,96145.66
2022-11-05T08:26:22.405Z,96152.94
2022-11-05T08:41:23.856Z,96171.47
2022-11-05T08:56:25.251Z,96174.25
2022-11-05T09:11:49.627Z,96191.94
2022-11-05T09:26:48.309Z,96198.31
2022-11-05T09:41:50.004Z,96212.53
2022-11-05T09:56:51.442Z,96220.28
2022-11-05T10:11:52.720Z,96229.38
2022-11-05T10:26:54.084Z,96236.50
2022-11-05T10:41:55.427Z,96259.25
2022-11-05T10:56:56.767Z,96259.06
2022-11-05T11:11:59.358Z,96269.13
2022-11-05T11:27:00.695Z,96267.41
2022-11-05T11:42:02.317Z,96280.25
2022-11-05T11:57:03.647Z,96294.03
2022-11-05T12:12:05.122Z,96283.75
2022-11-05T12:27:06.666Z,96288.81
2022-11-05T12:42:08.000Z,96294.03
2022-11-05T12:57:09.378Z,96294.38
2022-11-05T13:12:10.735Z,96297.81
2022-11-05T13:27:12.471Z,96308.97
2022-11-05T13:42:13.842Z,96316.09
2022-11-05T13:57:15.258Z,96324.63
2022-11-05T14:12:16.637Z,96334.41
2022-11-05T14:27:17.987Z,96342.22
2022-11-05T14:42:19.354Z,96341.59
2022-11-05T14:57:20.698Z,96351.41
2022-11-05T15:12:22.093Z,96365.34
2022-11-05T15:27:23.435Z,96370.03
2022-11-05T15:42:25.265Z,96376.91
2022-11-05T15:57:26.713Z,96375.16
2022-11-05T16:12:28.123Z,96378.91
2022-11-05T16:27:29.635Z,96392.06
2022-11-05T16:42:30.970Z,96414.53
2022-11-05T16:57:32.341Z,96411.16
2022-11-05T17:12:36.312Z,96423.50
2022-11-05T17:27:37.663Z,96424.03
2022-11-05T17:42:38.997Z,96441.19
2022-11-05T17:57:40.360Z,96453.16
2022-11-05T18:12:41.746Z,96484.22
2022-11-05T18:27:43.096Z,96491.06
2022-11-05T18:42:44.587Z,96481.41
2022-11-05T18:57:46.154Z,96481.81
2022-11-05T19:12:47.589Z,96490.13
2022-11-05T19:27:51.449Z,96485.94
2022-11-05T19:42:52.804Z,96483.34
2022-11-05T19:57:54.197Z,96485.63
2022-11-05T20:12:57.776Z,96483.75
2022-11-05T20:27:59.156Z,96506.13
2022-11-05T20:43:00.582Z,96520.44
2022-11-05T20:58:02.250Z,96522.97
2022-11-05T21:13:03.667Z,96512.44
2022-11-05T21:28:07.267Z,96520.66
2022-11-05T21:43:08.648Z,96506.69
2022-11-05T21:58:30.963Z,96510.69
2022-11-05T22:13:32.255Z,96496.28
2022-11-05T22:28:33.585Z,96501.81
2022-11-05T22:43:34.954Z,96488.59
2022-11-05T22:58:36.286Z,96474.72
2022-11-05T23:13:37.656Z,96470.97
2022-11-05T23:28:39.070Z,96471.28
2022-11-05T23:43:59.472Z,96469.59
2022-11-05T23:59:00.812Z,96448.34
